createdAt,value
2022-08-03T00:00:33.329Z,11.30
2022-08-03T00:03:04.850Z,10.30
2022-08-03T00:05:33.833Z,10.20
2022-08-03T00:08:01.903Z,10.00
2022-08-03T00:10:30.399Z,9.80
2022-08-03T00:12:58.307Z,10.90
2022-08-03T00:15:26.422Z,9.90
2022-08-03T00:17:54.420Z,10.20
2022-08-03T00:20:22.701Z,10.80
2022-08-03T00:22:50.923Z,9.70
2022-08-03T00:25:19.811Z,10.30
2022-08-03T00:27:48.330Z,10.10
2022-08-03T00:30:16.883Z,9.60
2022-08-03T00:32:45.612Z,9.30
2022-08-03T00:35:32.517Z,8.80
2022-08-03T00:38:01.776Z,9.10
2022-08-03T00:40:29.920Z,9.70
2022-08-03T00:43:03.840Z,10.20
2022-08-03T00:45:36.114Z,9.20
2022-08-03T00:48:06.114Z,8.60
2022-08-03T00:50:48.449Z,9.40
2022-08-03T00:53:20.085Z,9.30
2022-08-03T00:55:48.048Z,8.90
2022-08-03T00:58:16.314Z,9.30
2022-08-03T01:00:44.259Z,9.70
2022-08-03T01:03:12.285Z,9.20
2022-08-03T01:05:52.521Z,9.40
2022-08-03T01:08:32.157Z,8.70
2022-08-03T01:11:11.838Z,9.00
2022-08-03T01:14:04.597Z,8.80
2022-08-03T01:16:54.245Z,8.40
2022-08-03T01:19:46.043Z,9.20
2022-08-03T01:22:35.630Z,8.80
2022-08-03T01:25:20.018Z,8.50
2022-08-03T01:27:56.963Z,8.90
2022-08-03T01:30:31.780Z,9.30
2022-08-03T01:33:05.352Z,8.40
2022-08-03T01:35:42.372Z,8.10
2022-08-03T01:38:27.706Z,9.20
2022-08-03T01:40:56.912Z,9.20
2022-08-03T01:44:27.211Z,8.50
2022-08-03T01:46:20.710Z,8.40
2022-08-03T01:48:49.814Z,9.50
2022-08-03T01:51:20.195Z,9.20
2022-08-03T01:53:51.295Z,9.60
2022-08-03T01:56:20.418Z,8.90
2022-08-03T01:58:50.898Z,9.20
2022-08-03T02:01:21.747Z,9.50
2022-08-03T02:03:56.650Z,8.90
2022-08-03T02:06:32.944Z,8.30
2022-08-03T02:09:23.741Z,8.20
2022-08-03T02:11:53.415Z,8.40
2022-08-03T02:14:23.258Z,8.50
2022-08-03T02:16:52.009Z,8.20
2022-08-03T02:19:20.223Z,8.00
2022-08-03T02:21:57.431Z,8.00
2022-08-03T02:24:31.515Z,8.50
2022-08-03T02:27:01.371Z,8.30
2022-08-03T02:29:39.418Z,8.40
2022-08-03T02:32:17.647Z,7.60
2022-08-03T02:34:50.509Z,7.90
2022-08-03T02:37:20.182Z,8.60
2022-08-03T02:39:52.265Z,8.60
2022-08-03T02:42:23.366Z,9.90
2022-08-03T02:44:55.546Z,9.70
2022-08-03T02:47:27.350Z,9.00
2022-08-03T02:49:59.225Z,9.10
2022-08-03T02:52:30.080Z,8.70
2022-08-03T02:55:02.506Z,7.80
2022-08-03T02:57:32.006Z,7.80
2022-08-03T03:00:00.352Z,8.60
2022-08-03T03:02:29.396Z,8.50
2022-08-03T03:05:55.201Z,9.10
2022-08-03T03:07:51.906Z,8.70
2022-08-03T03:10:26.031Z,8.80
2022-08-03T03:12:58.024Z,9.00
2022-08-03T03:15:28.017Z,9.00
2022-08-03T03:17:57.467Z,8.90
2022-08-03T03:20:29.358Z,9.20
2022-08-03T03:23:00.744Z,10.00
2022-08-03T03:25:32.158Z,9.90
2022-08-03T03:28:02.037Z,9.90
2022-08-03T03:30:30.290Z,9.50
2022-08-03T03:32:58.865Z,9.60
2022-08-03T03:35:28.034Z,9.40
2022-08-03T03:37:56.751Z,10.20
2022-08-03T03:40:25.247Z,9.80
2022-08-03T03:42:53.260Z,10.20
2022-08-03T03:45:22.159Z,11.20
2022-08-03T03:47:50.430Z,11.40
2022-08-03T03:50:19.155Z,10.50
2022-08-03T03:52:47.031Z,10.80
2022-08-03T03:55:18.561Z,11.00
2022-08-03T03:57:47.017Z,10.80
2022-08-03T04:00:16.652Z,11.40
2022-08-03T04:02:45.800Z,11.50
2022-08-03T04:05:33.254Z,11.90
2022-08-03T04:08:27.411Z,11.30
2022-08-03T04:11:16.676Z,11.70
2022-08-03T04:13:50.636Z,10.80
2022-08-03T04:16:21.440Z,11.30
2022-08-03T04:18:54.169Z,11.00
2022-08-03T04:21:23.673Z,12.20
2022-08-03T04:23:55.380Z,10.90
2022-08-03T04:26:28.531Z,11.00
2022-08-03T04:28:58.714Z,11.50
2022-08-03T04:31:28.190Z,11.40
2022-08-03T04:33:57.048Z,11.40
2022-08-03T04:36:32.588Z,12.00
2022-08-03T04:39:04.123Z,11.30
2022-08-03T04:41:32.673Z,12.00
2022-08-03T04:44:23.746Z,11.70
2022-08-03T04:46:58.120Z,12.40
2022-08-03T04:49:26.984Z,12.20
2022-08-03T04:51:54.934Z,11.70
2022-08-03T04:54:22.758Z,11.60
2022-08-03T04:56:50.714Z,12.30
2022-08-03T04:59:18.424Z,11.50
2022-08-03T05:01:46.667Z,12.00
2022-08-03T05:04:17.041Z,12.30
2022-08-03T05:06:48.107Z,11.50
2022-08-03T05:09:49.848Z,11.30
2022-08-03T05:12:11.197Z,11.10
2022-08-03T05:14:39.677Z,11.30
2022-08-03T05:17:09.067Z,12.20
2022-08-03T05:19:36.892Z,12.90
2022-08-03T05:22:04.822Z,12.40
2022-08-03T05:24:32.669Z,12.00
2022-08-03T05:27:00.524Z,12.30
2022-08-03T05:29:28.268Z,12.80
2022-08-03T05:31:56.531Z,12.70
2022-08-03T05:34:24.498Z,12.50
2022-08-03T05:36:52.491Z,12.70
2022-08-03T05:39:20.410Z,13.30
2022-08-03T05:41:48.199Z,12.00
2022-08-03T05:44:16.329Z,12.70
2022-08-03T05:46:44.232Z,12.70
2022-08-03T05:49:12.168Z,14.20
2022-08-03T05:51:40.566Z,12.40
2022-08-03T05:54:08.345Z,12.90
2022-08-03T05:56:36.758Z,12.40
2022-08-03T05:59:28.693Z,13.40
2022-08-03T06:01:52.891Z,13.30
2022-08-03T06:04:21.180Z,12.70
2022-08-03T06:06:50.732Z,13.20
2022-08-03T06:09:20.573Z,13.00
2022-08-03T06:11:48.752Z,11.50
2022-08-03T06:14:16.549Z,12.70
2022-08-03T06:16:44.303Z,11.60
2022-08-03T06:19:12.396Z,10.90
2022-08-03T06:21:40.232Z,11.20
2022-08-03T06:24:08.812Z,11.40
2022-08-03T06:26:37.148Z,12.80
2022-08-03T06:29:04.961Z,13.00
2022-08-03T06:31:36.825Z,12.20
2022-08-03T06:34:32.275Z,11.50
2022-08-03T06:37:01.980Z,10.70
2022-08-03T06:39:30.625Z,11.10
2022-08-03T06:41:58.834Z,11.40
2022-08-03T06:44:26.836Z,11.30
2022-08-03T06:46:55.077Z,10.20
2022-08-03T06:49:23.117Z,10.30
2022-08-03T06:52:05.059Z,10.30
2022-08-03T06:54:35.751Z,10.60
2022-08-03T06:57:04.198Z,10.20
2022-08-03T07:00:10.938Z,9.20
2022-08-03T07:02:20.478Z,9.20
2022-08-03T07:04:49.256Z,9.20
2022-08-03T07:07:17.896Z,8.70
2022-08-03T07:09:57.677Z,9.50
2022-08-03T07:12:29.985Z,8.70
2022-08-03T07:15:01.778Z,8.80
2022-08-03T07:17:32.401Z,8.90
2022-08-03T07:20:03.950Z,8.80
2022-08-03T07:22:31.785Z,8.40
2022-08-03T07:24:59.716Z,9.30
2022-08-03T07:27:28.747Z,7.90
2022-08-03T07:30:07.468Z,7.80
2022-08-03T07:32:49.898Z,7.90
2022-08-03T07:35:24.916Z,8.10
2022-08-03T07:37:55.044Z,7.60
2022-08-03T07:40:23.363Z,7.30
2022-08-03T07:42:55.104Z,7.20
2022-08-03T07:45:24.069Z,6.20
2022-08-03T07:47:53.454Z,5.80
2022-08-03T07:50:24.553Z,5.20
2022-08-03T07:52:53.777Z,5.10
2022-08-03T07:55:25.599Z,4.90
2022-08-03T07:58:12.596Z,4.00
2022-08-03T08:00:40.605Z,4.00
2022-08-03T08:03:08.687Z,3.40
2022-08-03T08:05:39.448Z,3.40
2022-08-03T08:08:07.568Z,4.10
2022-08-03T08:10:37.437Z,4.30
2022-08-03T08:13:05.705Z,3.80
2022-08-03T08:15:33.802Z,3.80
2022-08-03T08:18:02.957Z,3.90
2022-08-03T08:20:38.010Z,4.10
2022-08-03T08:23:19.989Z,3.90
2022-08-03T08:25:56.988Z,3.20
2022-08-03T08:28:32.783Z,3.20
2022-08-03T08:31:11.066Z,3.20
2022-08-03T08:36:29.369Z,3.60
2022-08-03T08:38:57.811Z,4.00
2022-08-03T08:41:32.110Z,2.50
2022-08-03T08:44:01.688Z,2.60
2022-08-03T08:46:32.938Z,2.10
2022-08-03T08:49:04.833Z,2.60
2022-08-03T08:51:54.915Z,3.20
2022-08-03T08:54:27.090Z,2.90
2022-08-03T08:56:57.392Z,2.60
2022-08-03T08:59:49.309Z,1.90
2022-08-03T09:02:16.804Z,2.90
2022-08-03T09:04:54.114Z,2.90
2022-08-03T09:07:22.238Z,2.70
2022-08-03T09:10:10.026Z,2.70
2022-08-03T09:12:42.375Z,3.10
2022-08-03T09:15:24.612Z,2.80
2022-08-03T09:18:00.182Z,2.20
2022-08-03T09:20:32.775Z,2.10
2022-08-03T09:23:59.640Z,2.40
2022-08-03T09:26:01.867Z,2.10
2022-08-03T09:28:59.736Z,2.30
2022-08-03T09:31:52.249Z,2.60
2022-08-03T09:34:26.302Z,2.00
2022-08-03T09:36:55.928Z,2.30
2022-08-03T09:39:40.424Z,2.10
2022-08-03T09:42:17.412Z,2.30
2022-08-03T09:44:48.435Z,2.20
2022-08-03T09:47:28.830Z,2.40
2022-08-03T09:50:07.082Z,2.40
2022-08-03T09:52:49.881Z,2.10
2022-08-03T09:56:34.962Z,2.30
2022-08-03T09:58:11.683Z,2.60
2022-08-03T10:01:24.251Z,2.50
2022-08-03T10:04:04.220Z,2.20
2022-08-03T10:06:33.273Z,2.50
2022-08-03T10:09:12.876Z,2.50
2022-08-03T10:11:42.686Z,2.40
2022-08-03T10:14:19.484Z,2.30
2022-08-03T10:16:49.082Z,2.60
2022-08-03T10:19:17.457Z,2.30
2022-08-03T10:21:53.861Z,2.50
2022-08-03T10:24:27.283Z,2.10
2022-08-03T10:27:09.635Z,2.70
2022-08-03T10:29:42.454Z,2.30
2022-08-03T10:32:18.192Z,2.50
2022-08-03T10:34:50.389Z,1.90
2022-08-03T10:37:21.609Z,2.50
2022-08-03T10:39:57.506Z,2.30
2022-08-03T10:42:27.489Z,2.60
2022-08-03T10:45:04.644Z,2.60
2022-08-03T10:47:34.555Z,2.20
2022-08-03T10:50:04.087Z,2.50
2022-08-03T10:52:38.163Z,2.50
2022-08-03T10:55:54.029Z,3.00
2022-08-03T10:58:37.323Z,2.10
2022-08-03T11:01:07.571Z,2.80
2022-08-03T11:03:55.469Z,2.70
2022-08-03T11:06:37.219Z,3.00
2022-08-03T11:09:11.735Z,2.50
2022-08-03T11:11:45.253Z,2.20
2022-08-03T11:14:19.154Z,2.50
2022-08-03T11:16:50.175Z,2.80
2022-08-03T11:19:22.749Z,2.80
2022-08-03T11:21:56.859Z,2.90
2022-08-03T11:24:36.854Z,2.90
2022-08-03T11:27:27.362Z,2.80
2022-08-03T11:30:07.733Z,2.50
2022-08-03T11:32:46.713Z,2.80
2022-08-03T11:35:18.566Z,2.50
2022-08-03T11:38:04.395Z,3.30
2022-08-03T11:40:46.904Z,3.40
2022-08-03T11:43:31.261Z,3.00
2022-08-03T11:46:05.466Z,3.20
2022-08-03T11:48:45.138Z,3.30
2022-08-03T11:51:25.595Z,2.80
2022-08-03T11:53:59.452Z,2.90
2022-08-03T11:56:28.321Z,2.50
2022-08-03T11:59:18.875Z,2.80
2022-08-03T12:01:46.906Z,3.40
2022-08-03T12:04:16.491Z,3.50
2022-08-03T12:07:04.975Z,2.60
2022-08-03T12:09:36.253Z,3.10
2022-08-03T12:12:04.755Z,3.50
2022-08-03T12:14:49.496Z,3.60
2022-08-03T12:17:20.911Z,3.30
2022-08-03T12:19:49.445Z,2.90
2022-08-03T12:22:34.713Z,3.40
2022-08-03T12:25:03.310Z,3.30
2022-08-03T12:27:31.165Z,2.90
2022-08-03T12:30:01.638Z,3.80
2022-08-03T12:32:31.164Z,3.10
2022-08-03T12:35:01.557Z,3.60
2022-08-03T12:37:31.366Z,3.60
2022-08-03T12:40:09.429Z,3.60
2022-08-03T12:42:39.711Z,3.40
2022-08-03T12:45:28.036Z,3.80
2022-08-03T12:48:01.795Z,3.00
2022-08-03T12:50:34.772Z,3.80
2022-08-03T12:53:08.012Z,4.20
2022-08-03T12:55:56.971Z,3.20
2022-08-03T12:58:34.234Z,3.60
2022-08-03T13:01:09.940Z,2.90
2022-08-03T13:03:50.171Z,3.50
2022-08-03T13:06:26.008Z,3.80
2022-08-03T13:09:06.047Z,3.30
2022-08-03T13:11:57.293Z,3.70
2022-08-03T13:14:23.756Z,3.20
2022-08-03T13:16:51.536Z,3.50
2022-08-03T13:19:19.422Z,3.90
2022-08-03T13:22:03.354Z,3.60
2022-08-03T13:24:33.804Z,3.70
2022-08-03T13:28:01.233Z,3.50
2022-08-03T13:29:51.333Z,3.40
2022-08-03T13:32:22.348Z,3.10
2022-08-03T13:34:51.016Z,3.80
2022-08-03T13:37:19.161Z,3.70
2022-08-03T13:39:57.422Z,3.30
2022-08-03T13:42:34.704Z,4.10
2022-08-03T13:45:04.404Z,3.70
2022-08-03T13:47:32.796Z,3.40
2022-08-03T13:50:03.100Z,3.80
2022-08-03T13:52:32.844Z,3.40
2022-08-03T13:55:01.804Z,3.60
2022-08-03T13:58:02.560Z,3.60
2022-08-03T14:00:27.319Z,3.20
2022-08-03T14:03:12.818Z,3.50
2022-08-03T14:05:43.949Z,3.80
2022-08-03T14:08:12.791Z,3.50
2022-08-03T14:10:43.258Z,3.60
2022-08-03T14:13:16.804Z,4.00
2022-08-03T14:15:50.140Z,4.10
2022-08-03T14:18:28.365Z,3.40
2022-08-03T14:21:06.299Z,3.10
2022-08-03T14:23:41.892Z,3.40
2022-08-03T14:26:10.699Z,3.40
2022-08-03T14:28:38.626Z,4.00
2022-08-03T14:31:08.392Z,3.00
2022-08-03T14:33:54.889Z,4.50
2022-08-03T14:36:22.990Z,3.70
2022-08-03T14:38:51.083Z,3.90
2022-08-03T14:41:20.342Z,3.70
2022-08-03T14:44:01.234Z,3.80
2022-08-03T14:46:31.082Z,4.20
2022-08-03T14:50:31.972Z,3.90
2022-08-03T14:51:53.424Z,3.40
2022-08-03T14:54:22.974Z,4.40
2022-08-03T14:56:51.296Z,3.80
2022-08-03T14:59:19.090Z,3.80
2022-08-03T15:02:02.722Z,4.70
2022-08-03T15:04:35.014Z,4.40
2022-08-03T15:07:02.984Z,3.60
2022-08-03T15:09:31.070Z,3.50
2022-08-03T15:11:59.278Z,3.40
2022-08-03T15:14:28.420Z,4.00
2022-08-03T15:17:01.272Z,3.40
2022-08-03T15:20:01.365Z,3.70
2022-08-03T15:22:20.530Z,3.40
2022-08-03T15:24:52.753Z,3.20
2022-08-03T15:27:21.153Z,3.60
2022-08-03T15:30:08.094Z,3.90
2022-08-03T15:32:37.314Z,3.80
2022-08-03T15:35:05.429Z,4.00
2022-08-03T15:37:33.255Z,4.10
2022-08-03T15:40:01.482Z,3.30
2022-08-03T15:42:31.147Z,3.60
2022-08-03T15:44:59.581Z,3.90
2022-08-03T15:47:27.772Z,3.10
2022-08-03T15:49:55.771Z,4.10
2022-08-03T15:52:23.742Z,3.90
2022-08-03T15:54:54.295Z,4.00
2022-08-03T15:57:22.886Z,3.40
2022-08-03T15:59:51.014Z,4.00
2022-08-03T16:02:19.266Z,4.20
2022-08-03T16:04:47.111Z,3.70
2022-08-03T16:07:15.956Z,3.50
2022-08-03T16:09:44.334Z,4.80
2022-08-03T16:12:15.863Z,3.50
2022-08-03T16:15:15.831Z,3.60
2022-08-03T16:17:43.765Z,4.10
2022-08-03T16:20:30.738Z,4.10
2022-08-03T16:23:07.739Z,3.90
2022-08-03T16:25:40.108Z,3.80
2022-08-03T16:28:13.824Z,3.30
2022-08-03T16:30:43.780Z,3.90
2022-08-03T16:33:17.070Z,4.20
2022-08-03T16:35:46.577Z,3.90
2022-08-03T16:38:18.787Z,4.30
2022-08-03T16:40:52.007Z,4.20
2022-08-03T16:43:25.128Z,3.90
2022-08-03T16:45:53.139Z,3.90
2022-08-03T16:48:21.031Z,4.00
2022-08-03T16:50:49.241Z,3.60
2022-08-03T16:53:33.240Z,4.50
2022-08-03T16:56:09.862Z,4.20
2022-08-03T16:58:46.528Z,4.10
2022-08-03T17:01:21.805Z,4.00
2022-08-03T17:04:02.504Z,4.00
2022-08-03T17:06:37.384Z,4.60
2022-08-03T17:09:19.064Z,4.50
2022-08-03T17:11:50.534Z,4.00
2022-08-03T17:14:22.860Z,4.00
2022-08-03T17:17:01.591Z,4.20
2022-08-03T17:19:35.011Z,5.10
2022-08-03T17:22:11.191Z,4.20
2022-08-03T17:24:44.639Z,5.00
2022-08-03T17:27:23.193Z,4.20
2022-08-03T17:30:09.716Z,4.30
2022-08-03T17:32:42.859Z,4.80
2022-08-03T17:35:21.315Z,4.70
2022-08-03T17:37:58.075Z,4.80
2022-08-03T17:40:31.715Z,4.60
2022-08-03T17:43:01.216Z,4.70
2022-08-03T17:45:53.030Z,4.50
2022-08-03T17:48:25.121Z,4.80
2022-08-03T17:51:00.354Z,4.50
2022-08-03T17:53:31.751Z,4.90
2022-08-03T17:56:46.322Z,4.90
2022-08-03T17:59:51.035Z,4.60
2022-08-03T18:02:51.979Z,5.40
2022-08-03T18:05:22.143Z,5.50
2022-08-03T18:08:00.855Z,5.20
2022-08-03T18:10:49.922Z,5.00
2022-08-03T18:13:24.465Z,4.90
2022-08-03T18:15:59.011Z,5.40
2022-08-03T18:18:37.070Z,5.20
2022-08-03T18:21:09.283Z,7.10
2022-08-03T18:23:46.093Z,11.80
2022-08-03T18:26:20.655Z,12.00
2022-08-03T18:28:53.138Z,11.70
2022-08-03T18:31:59.422Z,10.10
2022-08-03T18:34:32.454Z,8.90
2022-08-03T18:37:07.431Z,8.60
2022-08-03T18:39:50.375Z,7.20
2022-08-03T18:42:26.375Z,6.80
2022-08-03T18:44:56.387Z,6.80
2022-08-03T18:47:52.515Z,6.10
2022-08-03T18:50:30.670Z,6.50
2022-08-03T18:54:01.826Z,5.80
2022-08-03T18:56:50.088Z,5.90
2022-08-03T18:59:56.168Z,6.00
2022-08-03T19:02:32.711Z,5.70
2022-08-03T19:05:08.990Z,5.60
2022-08-03T19:07:40.593Z,6.60
2022-08-03T19:10:16.288Z,6.30
2022-08-03T19:12:58.785Z,5.90
2022-08-03T19:15:36.848Z,5.80
2022-08-03T19:18:12.007Z,6.20
2022-08-03T19:20:46.637Z,6.40
2022-08-03T19:23:16.441Z,5.80
2022-08-03T19:25:45.756Z,5.90
2022-08-03T19:28:17.115Z,5.90
2022-08-03T19:30:53.709Z,5.80
2022-08-03T19:33:24.567Z,5.40
2022-08-03T19:35:57.015Z,6.00
2022-08-03T19:38:28.983Z,5.40
2022-08-03T19:41:01.630Z,6.10
2022-08-03T19:43:49.436Z,6.70
2022-08-03T19:46:30.678Z,5.90
2022-08-03T19:49:20.277Z,5.50
2022-08-03T19:52:02.346Z,6.00
2022-08-03T19:54:45.829Z,6.30
2022-08-03T19:57:25.420Z,5.90
2022-08-03T19:59:56.229Z,6.30
2022-08-03T20:02:26.597Z,6.70
2022-08-03T20:04:57.633Z,6.20
2022-08-03T20:07:31.454Z,6.30
2022-08-03T20:10:02.004Z,7.30
2022-08-03T20:12:34.379Z,8.10
2022-08-03T20:15:12.046Z,7.90
2022-08-03T20:17:56.989Z,8.10
2022-08-03T20:20:31.510Z,8.10
2022-08-03T20:23:11.445Z,8.90
2022-08-03T20:25:48.839Z,8.40
2022-08-03T20:28:50.519Z,8.70
2022-08-03T20:31:36.295Z,9.10
2022-08-03T20:34:07.047Z,9.30
2022-08-03T20:36:38.151Z,9.10
2022-08-03T20:39:07.792Z,9.50
2022-08-03T20:41:36.160Z,9.60
2022-08-03T20:44:08.911Z,9.90
2022-08-03T20:46:53.102Z,10.60
2022-08-03T20:49:25.616Z,10.10
2022-08-03T20:51:54.578Z,10.30
2022-08-03T20:54:29.946Z,10.90
2022-08-03T20:57:04.488Z,10.30
2022-08-03T20:59:50.433Z,11.20
2022-08-03T21:02:30.019Z,11.00
2022-08-03T21:05:03.219Z,10.80
2022-08-03T21:08:05.369Z,11.70
2022-08-03T21:10:38.876Z,11.40
2022-08-03T21:13:17.822Z,11.20
2022-08-03T21:16:12.454Z,10.80
2022-08-03T21:18:49.911Z,10.10
2022-08-03T21:21:20.150Z,11.90
2022-08-03T21:23:54.442Z,12.70
2022-08-03T21:26:24.944Z,12.20
2022-08-03T21:28:57.129Z,12.80
2022-08-03T21:31:26.764Z,12.40
2022-08-03T21:34:03.714Z,11.80
2022-08-03T21:36:35.688Z,11.20
2022-08-03T21:39:06.325Z,11.50
2022-08-03T21:41:47.081Z,11.10
2022-08-03T21:44:29.052Z,11.70
2022-08-03T21:46:59.082Z,10.70
2022-08-03T21:50:07.021Z,11.50
2022-08-03T21:52:21.689Z,11.30
2022-08-03T21:54:54.272Z,11.00
2022-08-03T21:57:24.984Z,11.40
2022-08-03T22:00:05.614Z,11.10
2022-08-03T22:02:58.229Z,11.10
2022-08-03T22:05:28.934Z,11.70
2022-08-03T22:08:13.594Z,12.20
2022-08-03T22:10:44.483Z,11.20
2022-08-03T22:13:21.920Z,11.70
2022-08-03T22:16:06.069Z,11.40
2022-08-03T22:18:42.366Z,10.30
2022-08-03T22:21:13.703Z,9.90
2022-08-03T22:23:45.515Z,9.80
2022-08-03T22:26:32.444Z,9.60
2022-08-03T22:29:07.529Z,8.60
2022-08-03T22:31:58.258Z,7.40
2022-08-03T22:34:27.227Z,7.50
2022-08-03T22:37:00.970Z,7.10
2022-08-03T22:39:30.083Z,7.00
2022-08-03T22:42:01.449Z,6.30
2022-08-03T22:44:29.724Z,6.30
2022-08-03T22:46:58.487Z,5.80
2022-08-03T22:49:28.473Z,6.10
2022-08-03T22:51:57.255Z,5.30
2022-08-03T22:54:25.549Z,5.50
2022-08-03T22:56:53.619Z,4.90
2022-08-03T22:59:40.633Z,5.10
2022-08-03T23:02:21.342Z,4.60
2022-08-03T23:04:55.657Z,4.10
2022-08-03T23:10:25.006Z,3.90
2022-08-03T23:12:54.566Z,3.50
2022-08-03T23:15:29.392Z,3.60
2022-08-03T23:17:58.677Z,3.10
2022-08-03T23:20:27.086Z,3.50
2022-08-03T23:22:59.871Z,3.90
2022-08-03T23:25:28.681Z,3.10
2022-08-03T23:28:05.173Z,3.00
2022-08-03T23:30:37.490Z,3.30
2022-08-03T23:33:06.823Z,3.20
2022-08-03T23:36:27.677Z,4.00
2022-08-03T23:38:43.675Z,3.30
2022-08-03T23:41:12.864Z,3.20
2022-08-03T23:43:52.421Z,3.40
2022-08-03T23:46:22.887Z,2.80
2022-08-03T23:48:51.278Z,3.00
2022-08-03T23:51:26.134Z,3.60
2022-08-03T23:54:08.792Z,3.20
2022-08-03T23:56:51.605Z,3.60
2022-08-03T23:59:59.380Z,3.80
